createdAt,value
2022-12-19T00:01:02.930Z,80.37
2022-12-19T00:11:05.349Z,79.49
2022-12-19T00:21:08.794Z,80.56
2022-12-19T00:31:16.572Z,81.70
2022-12-19T00:41:27.777Z,80.83
2022-12-19T00:51:32.206Z,79.53
2022-12-19T01:01:37.753Z,79.01
2022-12-19T01:12:00.432Z,78.08
2022-12-19T01:22:02.701Z,78.41
2022-12-19T01:32:05.487Z,78.41
2022-12-19T01:42:16.145Z,79.50
2022-12-19T01:52:23.846Z,78.39
2022-12-19T02:02:31.719Z,78.00
2022-12-19T02:12:37.959Z,78.07
2022-12-19T02:23:01.236Z,78.91
2022-12-19T02:33:11.606Z,78.37
2022-12-19T02:43:15.951Z,78.61
2022-12-19T02:53:23.576Z,78.19
2022-12-19T03:03:59.673Z,76.86
2022-12-19T03:14:18.601Z,78.07
2022-12-19T03:24:20.942Z,77.10
2022-12-19T03:34:38.424Z,77.07
2022-12-19T03:44:42.527Z,76.81
2022-12-19T03:55:10.337Z,75.27
2022-12-19T04:05:15.335Z,75.28
2022-12-19T04:15:17.878Z,71.96
2022-12-19T04:25:29.368Z,67.77
2022-12-19T04:35:32.321Z,68.92
2022-12-19T04:45:34.639Z,68.39
2022-12-19T04:55:38.160Z,69.94
2022-12-19T05:05:40.350Z,71.06
2022-12-19T05:15:42.919Z,71.70
2022-12-19T05:25:45.225Z,72.15
2022-12-19T05:35:48.081Z,72.24
2022-12-19T05:45:50.340Z,73.42
2022-12-19T05:55:52.583Z,74.28
2022-12-19T06:05:54.809Z,74.14
2022-12-19T06:16:05.834Z,74.37
2022-12-19T06:26:15.539Z,75.97
2022-12-19T06:36:24.185Z,75.89
2022-12-19T06:46:26.594Z,75.47
2022-12-19T06:56:34.996Z,75.48
2022-12-19T07:06:37.195Z,75.99
2022-12-19T07:16:41.504Z,76.38
2022-12-19T07:26:44.918Z,75.86
2022-12-19T07:36:47.177Z,75.88
2022-12-19T07:46:49.370Z,73.85
2022-12-19T07:56:52.220Z,72.31
2022-12-19T08:06:54.464Z,69.68
2022-12-19T08:17:19.733Z,69.30
2022-12-19T08:27:19.032Z,68.21
2022-12-19T08:37:21.931Z,68.26
2022-12-19T08:47:24.133Z,66.93
2022-12-19T08:57:26.487Z,65.74
2022-12-19T09:07:29.325Z,65.11
2022-12-19T09:17:31.585Z,63.91
2022-12-19T09:28:01.206Z,63.21
2022-12-19T09:38:00.081Z,58.07
2022-12-19T09:48:03.444Z,62.33
2022-12-19T09:58:30.359Z,61.18
2022-12-19T10:08:38.798Z,60.22
2022-12-19T10:19:05.777Z,58.11
2022-12-19T10:29:42.720Z,58.96
2022-12-19T10:39:56.836Z,59.36
2022-12-19T10:50:02.668Z,57.50
2022-12-19T11:00:20.197Z,53.47
2022-12-19T11:11:22.928Z,54.32
2022-12-19T11:29:36.496Z,55.29
2022-12-19T11:42:23.615Z,55.75
2022-12-19T11:53:03.451Z,57.14
2022-12-19T12:03:15.016Z,57.76
2022-12-19T12:19:47.116Z,57.66
2022-12-19T12:31:38.588Z,58.61
2022-12-19T12:37:08.259Z,57.96
2022-12-19T12:45:40.136Z,58.28
2022-12-19T12:55:43.525Z,60.90
2022-12-19T13:06:04.429Z,60.46
2022-12-19T13:16:44.659Z,59.78
2022-12-19T13:26:50.180Z,61.18
2022-12-19T13:39:47.686Z,61.93
2022-12-19T13:47:26.188Z,61.81
2022-12-19T13:57:32.007Z,62.41
2022-12-19T14:07:42.494Z,63.89
2022-12-19T14:17:49.269Z,62.35
2022-12-19T14:28:26.361Z,64.39
2022-12-19T14:39:26.925Z,65.87
2022-12-19T14:54:05.222Z,67.05
2022-12-19T14:59:27.553Z,67.33
2022-12-19T15:11:00.949Z,66.92
2022-12-19T15:19:52.401Z,67.58
2022-12-19T15:29:54.660Z,65.55
2022-12-19T15:39:56.852Z,69.33
2022-12-19T15:50:02.853Z,69.24
2022-12-19T16:00:12.893Z,68.73
2022-12-19T16:10:16.000Z,68.83
2022-12-19T16:20:24.404Z,69.41
2022-12-19T16:30:32.481Z,69.20
2022-12-19T16:40:34.792Z,68.76
2022-12-19T16:50:36.999Z,69.56
2022-12-19T17:00:39.331Z,70.19
2022-12-19T17:10:45.406Z,71.16
2022-12-19T17:20:47.729Z,71.86
2022-12-19T17:30:53.418Z,71.93
2022-12-19T17:40:56.374Z,72.07
2022-12-19T17:50:59.335Z,72.13
2022-12-19T18:01:01.760Z,72.29
2022-12-19T18:11:07.734Z,70.69
2022-12-19T18:21:15.204Z,70.91
2022-12-19T18:31:26.094Z,72.50
2022-12-19T18:41:28.388Z,72.82
2022-12-19T18:51:30.669Z,72.79
2022-12-19T19:01:33.076Z,73.40
2022-12-19T19:11:36.614Z,73.29
2022-12-19T19:21:40.395Z,74.03
2022-12-19T19:31:46.119Z,74.05
2022-12-19T19:41:48.795Z,73.97
2022-12-19T19:51:54.348Z,74.49
2022-12-19T20:02:01.309Z,74.32
2022-12-19T20:12:03.800Z,73.85
2022-12-19T20:22:05.985Z,74.62
2022-12-19T20:32:08.372Z,74.51
2022-12-19T20:42:10.832Z,74.88
2022-12-19T20:52:13.021Z,74.82
2022-12-19T21:02:15.268Z,74.67
2022-12-19T21:12:17.620Z,75.21
2022-12-19T21:22:20.079Z,75.75
2022-12-19T21:40:11.114Z,75.57
2022-12-19T21:50:15.268Z,76.04
2022-12-19T22:00:17.867Z,76.70
2022-12-19T22:10:20.308Z,78.48
2022-12-19T22:20:22.487Z,78.09
2022-12-19T22:30:24.676Z,81.80
2022-12-19T22:40:26.895Z,78.15
2022-12-19T22:50:29.252Z,71.72
2022-12-19T23:00:31.446Z,74.03
2022-12-19T23:10:33.658Z,76.11
2022-12-19T23:20:35.960Z,76.50
2022-12-19T23:30:38.165Z,77.06
2022-12-19T23:40:40.337Z,77.79
2022-12-19T23:50:42.710Z,77.18
